createdAt,value
2023-02-26T00:00:50.757Z,25
2023-02-26T00:01:50.771Z,25
2023-02-26T00:02:50.772Z,20
2023-02-26T00:03:50.758Z,21
2023-02-26T00:04:50.758Z,24
2023-02-26T00:05:50.772Z,21
2023-02-26T00:06:50.773Z,19
2023-02-26T00:07:50.758Z,22
2023-02-26T00:08:50.758Z,22
2023-02-26T00:09:50.772Z,23
2023-02-26T00:10:50.772Z,21
2023-02-26T00:11:50.758Z,20
2023-02-26T00:12:50.772Z,23
2023-02-26T00:13:50.772Z,23
2023-02-26T00:14:50.772Z,18
2023-02-26T00:15:50.772Z,22
2023-02-26T00:16:50.772Z,21
2023-02-26T00:17:50.773Z,20
2023-02-26T00:18:50.772Z,21
2023-02-26T00:19:50.758Z,20
2023-02-26T00:20:50.772Z,17
2023-02-26T00:21:50.773Z,20
2023-02-26T00:22:50.759Z,18
2023-02-26T00:23:50.759Z,18
2023-02-26T00:24:50.773Z,24
2023-02-26T00:25:50.773Z,19
2023-02-26T00:26:50.759Z,19
2023-02-26T00:27:50.759Z,17
2023-02-26T00:28:50.773Z,21
2023-02-26T00:29:50.773Z,21
2023-02-26T00:30:50.759Z,22
2023-02-26T00:31:50.773Z,19
2023-02-26T00:32:50.773Z,16
2023-02-26T00:33:50.773Z,20
2023-02-26T00:34:50.759Z,21
2023-02-26T00:35:50.773Z,20
2023-02-26T00:36:50.774Z,17
2023-02-26T00:37:50.773Z,20
2023-02-26T00:38:50.759Z,17
2023-02-26T00:39:50.773Z,16
2023-02-26T00:40:50.774Z,15
2023-02-26T00:41:50.773Z,18
2023-02-26T00:42:50.759Z,18
2023-02-26T00:43:50.773Z,18
2023-02-26T00:44:50.774Z,20
2023-02-26T00:45:50.760Z,22
2023-02-26T00:46:50.760Z,23
2023-02-26T00:47:50.774Z,20
2023-02-26T00:48:50.774Z,19
2023-02-26T00:49:50.760Z,21
2023-02-26T00:50:50.774Z,21
2023-02-26T00:51:50.774Z,19
2023-02-26T00:52:50.774Z,18
2023-02-26T00:53:50.760Z,18
2023-02-26T00:54:50.774Z,15
2023-02-26T00:55:50.774Z,14
2023-02-26T00:56:50.774Z,13
2023-02-26T00:57:50.760Z,13
2023-02-26T00:58:50.774Z,18
2023-02-26T00:59:50.775Z,12
2023-02-26T01:00:50.774Z,13
2023-02-26T01:01:50.760Z,13
2023-02-26T01:02:50.823Z,17
2023-02-26T01:03:50.775Z,14
2023-02-26T01:04:50.760Z,15
2023-02-26T01:05:50.760Z,12
2023-02-26T01:06:50.774Z,14
2023-02-26T01:07:50.775Z,13
2023-02-26T01:08:50.760Z,14
2023-02-26T01:09:50.799Z,13
2023-02-26T01:10:50.774Z,11
2023-02-26T01:11:50.774Z,12
2023-02-26T01:12:50.760Z,13
2023-02-26T01:13:50.775Z,13
2023-02-26T01:14:50.775Z,11
2023-02-26T01:15:50.775Z,15
2023-02-26T01:16:50.761Z,13
2023-02-26T01:17:50.775Z,11
2023-02-26T01:18:50.775Z,11
2023-02-26T01:19:50.775Z,13
2023-02-26T01:20:50.761Z,9
2023-02-26T01:21:50.775Z,10
2023-02-26T01:22:50.775Z,15
2023-02-26T01:23:50.761Z,13
2023-02-26T01:24:50.761Z,13
2023-02-26T01:25:50.775Z,12
2023-02-26T01:26:50.776Z,13
2023-02-26T01:27:50.761Z,14
2023-02-26T01:28:50.761Z,13
2023-02-26T01:29:50.775Z,12
2023-02-26T01:30:50.775Z,13
2023-02-26T01:31:50.761Z,17
2023-02-26T01:32:50.775Z,21
2023-02-26T01:33:50.775Z,17
2023-02-26T01:34:50.775Z,17
2023-02-26T01:35:50.761Z,18
2023-02-26T01:36:50.775Z,19
2023-02-26T01:37:50.776Z,17
2023-02-26T01:38:50.775Z,17
2023-02-26T01:39:50.761Z,15
2023-02-26T01:40:50.775Z,16
2023-02-26T01:41:50.776Z,15
2023-02-26T01:42:50.775Z,15
2023-02-26T01:43:50.761Z,16
2023-02-26T01:44:50.776Z,15
2023-02-26T01:45:50.776Z,14
2023-02-26T01:46:50.762Z,18
2023-02-26T01:47:50.762Z,14
2023-02-26T01:48:50.776Z,17
2023-02-26T01:49:50.776Z,13
2023-02-26T01:50:50.762Z,13
2023-02-26T01:51:50.776Z,14
2023-02-26T01:52:50.776Z,13
2023-02-26T01:53:50.776Z,14
2023-02-26T01:54:50.762Z,14
2023-02-26T01:55:50.776Z,13
2023-02-26T01:56:50.776Z,14
2023-02-26T01:57:50.776Z,13
2023-02-26T01:58:50.762Z,14
2023-02-26T01:59:50.776Z,12
2023-02-26T02:00:50.777Z,16
2023-02-26T02:01:50.776Z,15
2023-02-26T02:02:50.762Z,18
2023-02-26T02:03:50.776Z,14
2023-02-26T02:04:50.777Z,17
2023-02-26T02:05:50.762Z,12
2023-02-26T02:06:50.762Z,14
2023-02-26T02:07:50.776Z,17
2023-02-26T02:08:50.777Z,15
2023-02-26T02:09:50.762Z,17
2023-02-26T02:10:50.801Z,18
2023-02-26T02:11:50.776Z,18
2023-02-26T02:12:50.776Z,20
2023-02-26T02:13:50.762Z,22
2023-02-26T02:14:50.777Z,20
2023-02-26T02:15:50.776Z,22
2023-02-26T02:16:50.776Z,17
2023-02-26T02:17:50.762Z,21
2023-02-26T02:18:50.777Z,22
2023-02-26T02:19:50.777Z,17
2023-02-26T02:20:50.777Z,15
2023-02-26T02:21:50.763Z,13
2023-02-26T02:22:50.777Z,15
2023-02-26T02:23:50.777Z,14
2023-02-26T02:24:50.763Z,15
2023-02-26T02:25:50.763Z,17
2023-02-26T02:26:50.777Z,16
2023-02-26T02:27:50.777Z,15
2023-02-26T02:28:50.763Z,15
2023-02-26T02:29:50.763Z,15
2023-02-26T02:30:50.777Z,13
2023-02-26T02:31:50.777Z,13
2023-02-26T02:32:50.763Z,14
2023-02-26T02:33:50.777Z,18
2023-02-26T02:34:50.777Z,14
2023-02-26T02:35:50.777Z,15
2023-02-26T02:36:50.763Z,17
2023-02-26T02:37:50.777Z,16
2023-02-26T02:38:50.777Z,18
2023-02-26T02:39:50.777Z,17
2023-02-26T02:40:50.763Z,17
2023-02-26T02:41:50.777Z,17
2023-02-26T02:42:50.778Z,18
2023-02-26T02:43:50.777Z,17
2023-02-26T02:44:50.763Z,20
2023-02-26T02:45:50.777Z,19
2023-02-26T02:46:50.778Z,20
2023-02-26T02:47:50.763Z,18
2023-02-26T02:48:50.763Z,18
2023-02-26T02:49:50.777Z,16
2023-02-26T02:50:50.778Z,16
2023-02-26T02:51:50.763Z,17
2023-02-26T02:52:50.777Z,20
2023-02-26T02:53:50.777Z,17
2023-02-26T02:54:50.777Z,15
2023-02-26T02:55:50.763Z,14
2023-02-26T02:56:50.777Z,19
2023-02-26T02:57:50.803Z,16
2023-02-26T02:58:50.777Z,16
2023-02-26T02:59:50.763Z,16
2023-02-26T03:00:50.777Z,18
2023-02-26T03:01:50.778Z,20
2023-02-26T03:02:50.777Z,18
2023-02-26T03:03:50.763Z,16
2023-02-26T03:04:50.826Z,16
2023-02-26T03:05:50.778Z,17
2023-02-26T03:06:50.763Z,16
2023-02-26T03:07:50.763Z,14
2023-02-26T03:08:50.777Z,14
2023-02-26T03:09:50.778Z,18
2023-02-26T03:10:50.763Z,16
2023-02-26T03:11:50.802Z,21
2023-02-26T03:12:50.778Z,16
2023-02-26T03:13:50.778Z,15
2023-02-26T03:14:50.763Z,12
2023-02-26T03:15:50.777Z,12
2023-02-26T03:16:50.777Z,11
2023-02-26T03:17:50.777Z,13
2023-02-26T03:18:50.763Z,13
2023-02-26T03:19:50.778Z,16
2023-02-26T03:20:50.778Z,16
2023-02-26T03:21:50.778Z,13
2023-02-26T03:22:50.764Z,16
2023-02-26T03:23:50.778Z,13
2023-02-26T03:24:50.778Z,13
2023-02-26T03:25:50.764Z,13
2023-02-26T03:26:50.764Z,14
2023-02-26T03:27:50.778Z,15
2023-02-26T03:28:50.778Z,14
2023-02-26T03:29:50.764Z,14
2023-02-26T03:30:50.764Z,15
2023-02-26T03:31:50.778Z,18
2023-02-26T03:32:50.802Z,15
2023-02-26T03:33:50.764Z,14
2023-02-26T03:34:50.778Z,12
2023-02-26T03:35:50.778Z,13
2023-02-26T03:36:50.778Z,13
2023-02-26T03:37:50.764Z,13
2023-02-26T03:38:50.778Z,13
2023-02-26T03:39:50.829Z,13
2023-02-26T03:40:50.778Z,15
2023-02-26T03:41:50.764Z,14
2023-02-26T03:42:50.778Z,11
2023-02-26T03:43:50.778Z,10
2023-02-26T03:44:50.778Z,10
2023-02-26T03:45:50.764Z,12
2023-02-26T03:46:50.802Z,14
2023-02-26T03:47:50.779Z,14
2023-02-26T03:48:50.764Z,11
2023-02-26T03:49:50.764Z,11
2023-02-26T03:50:50.778Z,11
2023-02-26T03:51:50.779Z,12
2023-02-26T03:52:50.764Z,13
2023-02-26T03:53:50.827Z,13
2023-02-26T03:54:50.778Z,11
2023-02-26T03:55:50.778Z,11
2023-02-26T03:56:50.764Z,12
2023-02-26T03:57:50.778Z,14
2023-02-26T03:58:50.778Z,14
2023-02-26T03:59:50.778Z,16
2023-02-26T04:00:50.764Z,17
2023-02-26T04:01:50.778Z,15
2023-02-26T04:02:50.778Z,14
2023-02-26T04:03:50.778Z,12
2023-02-26T04:04:50.764Z,12
2023-02-26T04:05:50.778Z,12
2023-02-26T04:06:50.779Z,13
2023-02-26T04:07:50.764Z,11
2023-02-26T04:08:50.764Z,12
2023-02-26T04:09:50.778Z,14
2023-02-26T04:10:50.778Z,13
2023-02-26T04:11:50.764Z,14
2023-02-26T04:12:50.764Z,13
2023-02-26T04:13:50.778Z,13
2023-02-26T04:14:50.778Z,13
2023-02-26T04:15:50.764Z,14
2023-02-26T04:16:50.778Z,15
2023-02-26T04:17:50.778Z,15
2023-02-26T04:18:50.778Z,11
2023-02-26T04:19:50.764Z,13
2023-02-26T04:20:50.778Z,13
2023-02-26T04:21:50.779Z,14
2023-02-26T04:22:50.778Z,15
2023-02-26T04:23:50.764Z,13
2023-02-26T04:24:50.778Z,13
2023-02-26T04:25:50.778Z,15
2023-02-26T04:26:50.786Z,14
2023-02-26T04:27:50.764Z,16
2023-02-26T04:28:50.778Z,15
2023-02-26T04:29:50.778Z,15
2023-02-26T04:30:50.764Z,17
2023-02-26T04:31:50.764Z,16
2023-02-26T04:32:50.778Z,13
2023-02-26T04:33:50.842Z,12
2023-02-26T04:34:50.764Z,10
2023-02-26T04:35:50.778Z,10
2023-02-26T04:36:50.778Z,11
2023-02-26T04:37:50.778Z,12
2023-02-26T04:38:50.764Z,10
2023-02-26T04:39:50.778Z,9
2023-02-26T04:40:50.804Z,11
2023-02-26T04:41:50.778Z,10
2023-02-26T04:42:50.764Z,11
2023-02-26T04:43:50.778Z,10
2023-02-26T04:44:50.778Z,10
2023-02-26T04:45:50.778Z,13
2023-02-26T04:46:50.764Z,11
2023-02-26T04:47:50.826Z,14
2023-02-26T04:48:50.778Z,12
2023-02-26T04:49:50.764Z,12
2023-02-26T04:50:50.764Z,14
2023-02-26T04:51:50.778Z,14
2023-02-26T04:52:50.778Z,12
2023-02-26T04:53:50.764Z,11
2023-02-26T04:54:50.778Z,12
2023-02-26T04:55:50.778Z,12
2023-02-26T04:56:50.778Z,12
2023-02-26T04:57:50.764Z,13
2023-02-26T04:58:50.778Z,12
2023-02-26T04:59:50.778Z,13
2023-02-26T05:00:50.778Z,14
2023-02-26T05:01:50.764Z,9
2023-02-26T05:02:50.778Z,10
2023-02-26T05:03:50.778Z,10
2023-02-26T05:04:50.778Z,10
2023-02-26T05:05:50.764Z,10
2023-02-26T05:06:50.778Z,10
2023-02-26T05:07:50.778Z,9
2023-02-26T05:08:50.764Z,11
2023-02-26T05:09:50.764Z,9
2023-02-26T05:10:50.778Z,9
2023-02-26T05:11:50.778Z,8
2023-02-26T05:12:50.764Z,9
2023-02-26T05:13:50.764Z,11
2023-02-26T05:14:50.778Z,11
2023-02-26T05:15:50.778Z,14
2023-02-26T05:16:50.764Z,12
2023-02-26T05:17:50.778Z,14
2023-02-26T05:18:50.778Z,13
2023-02-26T05:19:50.778Z,12
2023-02-26T05:20:50.764Z,13
2023-02-26T05:21:50.778Z,13
2023-02-26T05:22:50.778Z,14
2023-02-26T05:23:50.778Z,17
2023-02-26T05:24:50.764Z,15
2023-02-26T05:25:50.778Z,14
2023-02-26T05:26:50.778Z,14
2023-02-26T05:27:50.788Z,15
2023-02-26T05:28:50.764Z,16
2023-02-26T05:29:50.778Z,15
2023-02-26T05:30:50.778Z,14
2023-02-26T05:31:50.764Z,15
2023-02-26T05:32:50.764Z,15
2023-02-26T05:33:50.778Z,14
2023-02-26T05:34:50.778Z,11
2023-02-26T05:35:50.764Z,12
2023-02-26T05:36:50.778Z,11
2023-02-26T05:37:50.778Z,12
2023-02-26T05:38:50.778Z,13
2023-02-26T05:40:50.778Z,12
2023-02-26T05:41:50.778Z,13
2023-02-26T05:42:50.778Z,14
2023-02-26T05:43:50.764Z,14
2023-02-26T05:44:50.778Z,11
2023-02-26T05:45:50.778Z,14
2023-02-26T05:46:50.778Z,12
2023-02-26T05:47:50.764Z,13
2023-02-26T05:48:50.842Z,13
2023-02-26T05:49:50.779Z,14
2023-02-26T05:50:50.764Z,15
2023-02-26T05:51:50.764Z,15
2023-02-26T05:52:50.778Z,18
2023-02-26T05:53:50.778Z,16
2023-02-26T05:54:50.764Z,17
2023-02-26T05:55:50.842Z,17
2023-02-26T05:56:50.778Z,17
2023-02-26T05:57:50.778Z,14
2023-02-26T05:58:50.764Z,13
2023-02-26T05:59:50.778Z,15
2023-02-26T06:00:50.778Z,14
2023-02-26T06:01:50.778Z,13
2023-02-26T06:02:50.764Z,15
2023-02-26T06:03:50.778Z,13
2023-02-26T06:04:50.778Z,11
2023-02-26T06:05:50.778Z,12
2023-02-26T06:06:50.764Z,12
2023-02-26T06:07:50.778Z,11
2023-02-26T06:08:50.778Z,13
2023-02-26T06:09:50.764Z,13
2023-02-26T06:10:50.764Z,11
2023-02-26T06:11:50.778Z,8
2023-02-26T06:12:50.778Z,8
2023-02-26T06:13:50.764Z,7
2023-02-26T06:14:50.764Z,9
2023-02-26T06:15:50.778Z,9
2023-02-26T06:16:50.778Z,10
2023-02-26T06:17:50.764Z,12
2023-02-26T06:18:50.778Z,10
2023-02-26T06:19:50.778Z,9
2023-02-26T06:20:50.778Z,9
2023-02-26T06:21:50.764Z,12
2023-02-26T06:22:50.778Z,11
2023-02-26T06:23:50.779Z,11
2023-02-26T06:24:50.778Z,9
2023-02-26T06:25:50.764Z,9
2023-02-26T06:26:50.778Z,8
2023-02-26T06:27:50.779Z,9
2023-02-26T06:28:50.778Z,10
2023-02-26T06:29:50.764Z,11
2023-02-26T06:30:50.778Z,9
2023-02-26T06:31:50.779Z,11
2023-02-26T06:32:50.764Z,12
2023-02-26T06:33:50.764Z,12
2023-02-26T06:34:50.778Z,12
2023-02-26T06:35:50.779Z,13
2023-02-26T06:36:50.764Z,13
2023-02-26T06:37:50.778Z,12
2023-02-26T06:38:50.778Z,10
2023-02-26T06:39:50.778Z,11
2023-02-26T06:40:50.764Z,12
2023-02-26T06:41:50.778Z,12
2023-02-26T06:42:50.778Z,12
2023-02-26T06:43:50.778Z,11
2023-02-26T06:44:50.764Z,12
2023-02-26T06:45:50.778Z,13
2023-02-26T06:46:50.779Z,12
2023-02-26T06:47:50.778Z,14
2023-02-26T06:48:50.764Z,13
2023-02-26T06:49:50.842Z,12
2023-02-26T06:50:50.779Z,9
2023-02-26T06:51:50.764Z,10
2023-02-26T06:52:50.764Z,14
2023-02-26T06:53:50.778Z,12
2023-02-26T06:54:50.779Z,13
2023-02-26T06:55:50.764Z,14
2023-02-26T06:56:50.843Z,13
2023-02-26T06:57:50.778Z,13
2023-02-26T06:58:50.778Z,14
2023-02-26T06:59:50.764Z,14
2023-02-26T07:00:50.778Z,13
2023-02-26T07:01:50.778Z,15
2023-02-26T07:02:50.778Z,14
2023-02-26T07:03:50.764Z,14
2023-02-26T07:04:50.778Z,12
2023-02-26T07:05:50.779Z,14
2023-02-26T07:06:50.778Z,16
2023-02-26T07:07:50.764Z,14
2023-02-26T07:08:50.779Z,13
2023-02-26T07:09:50.779Z,16
2023-02-26T07:10:50.765Z,13
2023-02-26T07:11:50.764Z,12
2023-02-26T07:12:50.779Z,16
2023-02-26T07:13:50.779Z,15
2023-02-26T07:14:50.765Z,14
2023-02-26T07:15:50.765Z,20
2023-02-26T07:16:50.779Z,16
2023-02-26T07:17:50.779Z,18
2023-02-26T07:18:50.765Z,16
2023-02-26T07:19:50.779Z,17
2023-02-26T07:20:50.779Z,17
2023-02-26T07:21:50.779Z,17
2023-02-26T07:22:50.765Z,17
2023-02-26T07:23:50.779Z,18
2023-02-26T07:24:50.779Z,17
2023-02-26T07:25:50.779Z,17
2023-02-26T07:26:50.765Z,18
2023-02-26T07:27:50.779Z,17
2023-02-26T07:28:50.780Z,17
2023-02-26T07:29:50.791Z,18
2023-02-26T07:30:50.765Z,17
2023-02-26T07:31:50.779Z,17
2023-02-26T07:32:50.780Z,17
2023-02-26T07:33:50.765Z,15
2023-02-26T07:34:50.765Z,16
2023-02-26T07:35:50.779Z,18
2023-02-26T07:36:50.780Z,11
2023-02-26T07:37:50.765Z,9
2023-02-26T07:38:50.779Z,9
2023-02-26T07:39:50.779Z,11
2023-02-26T07:40:50.779Z,13
2023-02-26T07:41:50.765Z,13
2023-02-26T07:42:50.780Z,9
2023-02-26T07:43:50.805Z,11
2023-02-26T07:44:50.780Z,10
2023-02-26T07:45:50.766Z,13
2023-02-26T07:46:50.780Z,8
2023-02-26T07:47:50.780Z,11
2023-02-26T07:48:50.780Z,11
2023-02-26T07:49:50.766Z,13
2023-02-26T07:50:50.828Z,11
2023-02-26T07:51:50.780Z,11
2023-02-26T07:52:50.766Z,9
2023-02-26T07:53:50.766Z,14
2023-02-26T07:54:50.780Z,14
2023-02-26T07:55:50.781Z,13
2023-02-26T07:56:50.766Z,11
2023-02-26T07:57:50.805Z,13
2023-02-26T07:58:50.780Z,11
2023-02-26T07:59:50.780Z,11
2023-02-26T08:00:50.766Z,15
2023-02-26T08:01:50.780Z,15
2023-02-26T08:02:50.780Z,13
2023-02-26T08:03:50.780Z,13
2023-02-26T08:04:50.766Z,13
2023-02-26T08:05:50.781Z,15
2023-02-26T08:06:50.781Z,15
2023-02-26T08:07:50.780Z,14
2023-02-26T08:08:50.766Z,17
2023-02-26T08:09:50.780Z,14
2023-02-26T08:10:50.781Z,17
2023-02-26T08:11:50.767Z,16
2023-02-26T08:12:50.767Z,13
2023-02-26T08:13:50.781Z,12
2023-02-26T08:14:50.781Z,14
2023-02-26T08:15:50.767Z,15
2023-02-26T08:16:50.767Z,13
2023-02-26T08:17:50.781Z,15
2023-02-26T08:18:50.789Z,16
2023-02-26T08:19:50.767Z,14
2023-02-26T08:20:50.781Z,16
2023-02-26T08:21:50.781Z,17
2023-02-26T08:22:50.781Z,16
2023-02-26T08:23:50.767Z,15
2023-02-26T08:24:50.781Z,15
2023-02-26T08:25:50.783Z,13
2023-02-26T08:26:50.781Z,12
2023-02-26T08:27:50.767Z,10
2023-02-26T08:28:50.781Z,13
2023-02-26T08:29:50.782Z,15
2023-02-26T08:30:50.781Z,17
2023-02-26T08:31:50.767Z,16
2023-02-26T08:32:50.782Z,16
2023-02-26T08:33:50.782Z,14
2023-02-26T08:34:50.767Z,14
2023-02-26T08:35:50.768Z,14
2023-02-26T08:36:50.782Z,13
2023-02-26T08:37:50.782Z,16
2023-02-26T08:38:50.768Z,16
2023-02-26T08:39:50.782Z,14
2023-02-26T08:40:50.782Z,15
2023-02-26T08:41:50.782Z,13
2023-02-26T08:42:50.768Z,13
2023-02-26T08:43:50.782Z,11
2023-02-26T08:44:50.782Z,11
2023-02-26T08:45:50.782Z,12
2023-02-26T08:46:50.768Z,13
2023-02-26T08:47:50.782Z,16
2023-02-26T08:48:50.783Z,11
2023-02-26T08:49:50.782Z,11
2023-02-26T08:50:50.768Z,12
2023-02-26T08:51:50.807Z,14
2023-02-26T08:52:50.783Z,17
2023-02-26T08:53:50.769Z,12
2023-02-26T08:54:50.769Z,13
2023-02-26T08:55:50.783Z,15
2023-02-26T08:56:50.783Z,16
2023-02-26T08:57:50.769Z,14
2023-02-26T08:58:50.807Z,19
2023-02-26T08:59:50.783Z,14
2023-02-26T09:00:50.783Z,16
2023-02-26T09:01:50.769Z,15
2023-02-26T09:02:50.783Z,16
2023-02-26T09:03:50.783Z,15
2023-02-26T09:04:50.783Z,15
2023-02-26T09:05:50.769Z,15
2023-02-26T09:06:50.783Z,17
2023-02-26T09:07:50.784Z,16
2023-02-26T09:08:50.783Z,18
2023-02-26T09:09:50.769Z,17
2023-02-26T09:10:50.784Z,19
2023-02-26T09:11:50.784Z,19
2023-02-26T09:12:50.769Z,19
2023-02-26T09:13:50.769Z,17
2023-02-26T09:14:50.784Z,17
2023-02-26T09:15:50.784Z,21
2023-02-26T09:16:50.770Z,18
2023-02-26T09:17:50.770Z,18
2023-02-26T09:18:50.784Z,19
2023-02-26T09:19:50.784Z,15
2023-02-26T09:20:50.770Z,17
2023-02-26T09:21:50.784Z,15
2023-02-26T09:22:50.784Z,15
2023-02-26T09:23:50.784Z,16
2023-02-26T09:24:50.770Z,16
2023-02-26T09:25:50.784Z,21
2023-02-26T09:26:50.785Z,16
2023-02-26T09:27:50.784Z,19
2023-02-26T09:28:50.770Z,18
2023-02-26T09:29:50.785Z,21
2023-02-26T09:30:50.785Z,19
2023-02-26T09:31:50.795Z,23
2023-02-26T09:32:50.770Z,26
2023-02-26T09:33:50.784Z,24
2023-02-26T09:34:50.785Z,18
2023-02-26T09:35:50.771Z,20
2023-02-26T09:36:50.771Z,22
2023-02-26T09:37:50.785Z,25
2023-02-26T09:38:50.785Z,23
2023-02-26T09:39:50.771Z,24
2023-02-26T09:40:50.785Z,28
2023-02-26T09:41:50.785Z,29
2023-02-26T09:42:50.785Z,28
2023-02-26T09:43:50.771Z,28
2023-02-26T09:44:50.785Z,27
2023-02-26T09:45:50.785Z,28
2023-02-26T09:46:50.785Z,28
2023-02-26T09:47:50.771Z,25
2023-02-26T09:48:50.785Z,24
2023-02-26T09:49:50.786Z,24
2023-02-26T09:50:50.785Z,25
2023-02-26T09:51:50.771Z,25
2023-02-26T09:52:50.850Z,23
2023-02-26T09:53:50.786Z,24
2023-02-26T09:54:50.772Z,19
2023-02-26T09:55:50.772Z,19
2023-02-26T09:56:50.786Z,24
2023-02-26T09:57:50.786Z,24
2023-02-26T09:58:50.772Z,20
2023-02-26T09:59:50.772Z,16
2023-02-26T10:00:50.786Z,13
2023-02-26T10:01:50.786Z,15
2023-02-26T10:02:50.772Z,12
2023-02-26T10:03:50.786Z,14
2023-02-26T10:04:50.786Z,14
2023-02-26T10:05:50.786Z,14
2023-02-26T10:06:50.772Z,21
2023-02-26T10:07:50.786Z,19
2023-02-26T10:08:50.787Z,17
2023-02-26T10:09:50.786Z,17
2023-02-26T10:10:50.772Z,13
2023-02-26T10:11:50.787Z,14
2023-02-26T10:12:50.787Z,14
2023-02-26T10:13:50.773Z,14
2023-02-26T10:14:50.773Z,17
2023-02-26T10:15:50.787Z,16
2023-02-26T10:16:50.787Z,14
2023-02-26T10:17:50.773Z,18
2023-02-26T10:18:50.773Z,13
2023-02-26T10:19:50.787Z,13
2023-02-26T10:20:50.811Z,18
2023-02-26T10:21:50.773Z,20
2023-02-26T10:22:50.788Z,21
2023-02-26T10:23:50.787Z,14
2023-02-26T10:24:50.787Z,13
2023-02-26T10:25:50.774Z,14
2023-02-26T10:26:50.788Z,16
2023-02-26T10:27:50.788Z,18
2023-02-26T10:28:50.788Z,26
2023-02-26T10:29:50.774Z,28
2023-02-26T10:30:50.788Z,25
2023-02-26T10:31:50.789Z,19
2023-02-26T10:32:50.788Z,22
2023-02-26T10:33:50.774Z,24
2023-02-26T10:34:50.788Z,26
2023-02-26T10:35:50.789Z,26
2023-02-26T10:36:50.774Z,24
2023-02-26T10:37:50.775Z,22
2023-02-26T10:38:50.789Z,20
2023-02-26T10:39:50.789Z,22
2023-02-26T10:40:50.775Z,22
2023-02-26T10:41:50.789Z,21
2023-02-26T10:42:50.789Z,20
2023-02-26T10:43:50.789Z,22
2023-02-26T10:44:50.775Z,21
2023-02-26T10:45:50.789Z,23
2023-02-26T10:46:50.789Z,24
2023-02-26T10:47:50.789Z,20
2023-02-26T10:48:50.775Z,23
2023-02-26T10:49:50.789Z,35
2023-02-26T10:50:50.790Z,36
2023-02-26T10:51:50.790Z,41
2023-02-26T10:52:50.775Z,28
2023-02-26T10:53:50.790Z,28
2023-02-26T10:54:50.790Z,22
2023-02-26T10:55:50.776Z,28
2023-02-26T10:56:50.776Z,26
2023-02-26T10:57:50.790Z,25
2023-02-26T10:58:50.790Z,21
2023-02-26T10:59:50.776Z,22
2023-02-26T11:00:50.839Z,32
2023-02-26T11:02:50.790Z,26
2023-02-26T11:03:50.776Z,27
2023-02-26T11:04:50.790Z,28
2023-02-26T11:05:50.791Z,33
2023-02-26T11:06:50.790Z,28
2023-02-26T11:07:50.776Z,30
2023-02-26T11:08:50.790Z,29
2023-02-26T11:09:50.791Z,30
2023-02-26T11:10:50.791Z,29
2023-02-26T11:11:50.777Z,30
2023-02-26T11:12:50.791Z,26
2023-02-26T11:13:50.792Z,27
2023-02-26T11:14:50.777Z,31
2023-02-26T11:15:50.777Z,29
2023-02-26T11:16:50.791Z,36
2023-02-26T11:17:50.792Z,31
2023-02-26T11:18:50.777Z,29
2023-02-26T11:19:50.777Z,33
2023-02-26T11:20:50.791Z,28
2023-02-26T11:21:50.791Z,33
2023-02-26T11:22:50.778Z,32
2023-02-26T11:23:50.792Z,31
2023-02-26T11:24:50.792Z,31
2023-02-26T11:25:50.792Z,26
2023-02-26T11:26:50.778Z,31
2023-02-26T11:27:50.792Z,29
2023-02-26T11:28:50.793Z,27
2023-02-26T11:29:50.792Z,29
2023-02-26T11:30:50.778Z,29
2023-02-26T11:31:50.792Z,29
2023-02-26T11:32:50.793Z,33
2023-02-26T11:33:50.792Z,32
2023-02-26T11:34:50.779Z,31
2023-02-26T11:35:50.793Z,30
2023-02-26T11:36:50.793Z,23
2023-02-26T11:37:50.779Z,25
2023-02-26T11:38:50.779Z,31
2023-02-26T11:39:50.793Z,37
2023-02-26T11:40:50.794Z,26
2023-02-26T11:41:50.779Z,29
2023-02-26T11:42:50.793Z,29
2023-02-26T11:43:50.793Z,30
2023-02-26T11:44:50.793Z,29
2023-02-26T11:45:50.779Z,27
2023-02-26T11:46:50.794Z,23
2023-02-26T11:47:50.794Z,26
2023-02-26T11:48:50.794Z,26
2023-02-26T11:49:50.780Z,26
2023-02-26T11:50:50.794Z,27
2023-02-26T11:51:50.794Z,21
2023-02-26T11:52:50.794Z,24
2023-02-26T11:53:50.780Z,28
2023-02-26T11:54:50.794Z,28
2023-02-26T11:55:50.795Z,25
2023-02-26T11:56:50.780Z,23
2023-02-26T11:57:50.780Z,27
2023-02-26T11:58:50.795Z,28
2023-02-26T11:59:50.795Z,32
2023-02-26T12:00:50.781Z,32
2023-02-26T12:01:50.781Z,28
2023-02-26T12:02:50.795Z,23
2023-02-26T12:03:50.795Z,18
2023-02-26T12:04:50.781Z,19
2023-02-26T12:05:50.795Z,22
2023-02-26T12:06:50.795Z,23
2023-02-26T12:07:50.795Z,24
2023-02-26T12:08:50.781Z,26
2023-02-26T12:09:50.795Z,27
2023-02-26T12:10:50.796Z,23
2023-02-26T12:11:50.795Z,23
2023-02-26T12:12:50.782Z,23
2023-02-26T12:13:50.796Z,21
2023-02-26T12:14:50.796Z,23
2023-02-26T12:15:50.782Z,29
2023-02-26T12:16:50.782Z,24
2023-02-26T12:17:50.796Z,18
2023-02-26T12:18:50.796Z,21
2023-02-26T12:19:50.782Z,19
2023-02-26T12:20:50.782Z,24
2023-02-26T12:21:50.796Z,24
2023-02-26T12:22:50.804Z,25
2023-02-26T12:23:50.782Z,29
2023-02-26T12:24:50.797Z,22
2023-02-26T12:25:50.797Z,29
2023-02-26T12:26:50.797Z,29
2023-02-26T12:27:50.783Z,27
2023-02-26T12:28:50.797Z,34
2023-02-26T12:29:50.799Z,35
2023-02-26T12:30:50.797Z,44
2023-02-26T12:31:50.783Z,29
2023-02-26T12:32:50.797Z,24
2023-02-26T12:33:50.798Z,27
2023-02-26T12:34:50.797Z,30
2023-02-26T12:35:50.784Z,29
2023-02-26T12:36:50.798Z,28
2023-02-26T12:37:50.798Z,23
2023-02-26T12:38:50.784Z,24
2023-02-26T12:39:50.784Z,25
2023-02-26T12:40:50.798Z,34
2023-02-26T12:41:50.799Z,25
2023-02-26T12:42:50.784Z,28
2023-02-26T12:43:50.799Z,26
2023-02-26T12:44:50.799Z,26
2023-02-26T12:45:50.799Z,34
2023-02-26T12:46:50.785Z,33
2023-02-26T12:47:50.799Z,31
2023-02-26T12:48:50.825Z,28
2023-02-26T12:49:50.800Z,24
2023-02-26T12:50:50.786Z,22
2023-02-26T12:51:50.800Z,24
2023-02-26T12:52:50.800Z,21
2023-02-26T12:53:50.800Z,23
2023-02-26T12:54:50.786Z,21
2023-02-26T12:55:50.849Z,22
2023-02-26T12:56:50.801Z,24
2023-02-26T12:57:50.787Z,30
2023-02-26T12:58:50.787Z,23
2023-02-26T12:59:50.801Z,23
2023-02-26T13:00:50.802Z,15
2023-02-26T13:01:50.787Z,23
2023-02-26T13:02:50.826Z,23
2023-02-26T13:03:50.801Z,22
2023-02-26T13:04:50.802Z,23
2023-02-26T13:05:50.788Z,25
2023-02-26T13:06:50.802Z,19
2023-02-26T13:07:50.802Z,26
2023-02-26T13:08:50.802Z,26
2023-02-26T13:09:50.788Z,20
2023-02-26T13:10:50.802Z,20
2023-02-26T13:11:50.803Z,13
2023-02-26T13:12:50.803Z,26
2023-02-26T13:13:50.789Z,24
2023-02-26T13:14:50.803Z,23
2023-02-26T13:15:50.804Z,24
2023-02-26T13:16:50.789Z,20
2023-02-26T13:17:50.789Z,21
2023-02-26T13:18:50.803Z,17
2023-02-26T13:19:50.804Z,18
2023-02-26T13:20:50.790Z,16
2023-02-26T13:21:50.790Z,19
2023-02-26T13:22:50.804Z,24
2023-02-26T13:23:50.804Z,18
2023-02-26T13:24:50.790Z,19
2023-02-26T13:25:50.804Z,28
2023-02-26T13:26:50.804Z,32
2023-02-26T13:27:50.804Z,29
2023-02-26T13:28:50.790Z,27
2023-02-26T13:29:50.805Z,26
2023-02-26T13:30:50.805Z,27
2023-02-26T13:31:50.805Z,25
2023-02-26T13:32:50.791Z,27
2023-02-26T13:33:50.805Z,28
2023-02-26T13:34:50.806Z,28
2023-02-26T13:35:50.805Z,24
2023-02-26T13:36:50.791Z,25
2023-02-26T13:37:50.805Z,37
2023-02-26T13:38:50.806Z,30
2023-02-26T13:39:50.792Z,25
2023-02-26T13:40:50.792Z,25
2023-02-26T13:41:50.806Z,24
2023-02-26T13:42:50.807Z,30
2023-02-26T13:43:50.792Z,26
2023-02-26T13:44:50.806Z,26
2023-02-26T13:45:50.806Z,22
2023-02-26T13:46:50.807Z,30
2023-02-26T13:47:50.793Z,25
2023-02-26T13:48:50.807Z,33
2023-02-26T13:49:50.833Z,27
2023-02-26T13:50:50.807Z,23
2023-02-26T13:51:50.793Z,22
2023-02-26T13:52:50.808Z,21
2023-02-26T13:53:50.808Z,21
2023-02-26T13:54:50.808Z,18
2023-02-26T13:55:50.794Z,22
2023-02-26T13:56:50.856Z,15
2023-02-26T13:57:50.809Z,14
2023-02-26T13:58:50.794Z,15
2023-02-26T13:59:50.794Z,17
2023-02-26T14:00:50.808Z,12
2023-02-26T14:01:50.809Z,20
2023-02-26T14:02:50.794Z,17
2023-02-26T14:03:50.833Z,18
2023-02-26T14:04:50.809Z,17
2023-02-26T14:05:50.809Z,17
2023-02-26T14:06:50.795Z,27
2023-02-26T14:07:50.809Z,20
2023-02-26T14:08:50.809Z,18
2023-02-26T14:09:50.809Z,22
2023-02-26T14:10:50.795Z,25
2023-02-26T14:11:50.809Z,17
2023-02-26T14:12:50.810Z,21
2023-02-26T14:13:50.810Z,19
2023-02-26T14:14:50.796Z,19
2023-02-26T14:15:50.810Z,24
2023-02-26T14:16:50.810Z,23
2023-02-26T14:17:50.796Z,23
2023-02-26T14:18:50.796Z,26